sensor_id;sensor_type;location;lat;lon;timestamp;P1;durP1;ratioP1;P2;durP2;ratioP2
18526;SDS011;9393;42.158;24.748;2023-04-25T00:01:42;1.87;;;1.67;;
18526;SDS011;9393;42.158;24.748;2023-04-25T00:04:46;4.93;;;1.70;;
18526;SDS011;9393;42.158;24.748;2023-04-25T00:07:51;4.00;;;1.90;;
18526;SDS011;9393;42.158;24.748;2023-04-25T00:10:55;3.83;;;2.00;;
18526;SDS011;9393;42.158;24.748;2023-04-25T00:13:59;2.80;;;1.60;;
18526;SDS011;9393;42.158;24.748;2023-04-25T00:17:05;3.33;;;2.03;;
18526;SDS011;9393;42.158;24.748;2023-04-25T00:20:10;3.50;;;1.83;;
18526;SDS011;9393;42.158;24.748;2023-04-25T00:23:14;2.10;;;1.90;;
18526;SDS011;9393;42.158;24.748;2023-04-25T00:26:20;2.60;;;1.80;;
18526;SDS011;9393;42.158;24.748;2023-04-25T00:29:24;2.43;;;2.00;;
18526;SDS011;9393;42.158;24.748;2023-04-25T00:32:29;2.43;;;2.10;;
18526;SDS011;9393;42.158;24.748;2023-04-25T00:35:33;2.10;;;1.80;;
18526;SDS011;9393;42.158;24.748;2023-04-25T00:38:37;3.60;;;2.07;;
18526;SDS011;9393;42.158;24.748;2023-04-25T00:41:41;2.50;;;2.30;;
18526;SDS011;9393;42.158;24.748;2023-04-25T00:44:46;2.47;;;2.10;;
18526;SDS011;9393;42.158;24.748;2023-04-25T00:47:52;2.60;;;2.40;;
18526;SDS011;9393;42.158;24.748;2023-04-25T00:50:56;3.63;;;2.30;;
18526;SDS011;9393;42.158;24.748;2023-04-25T00:54:01;3.33;;;2.10;;
18526;SDS011;9393;42.158;24.748;2023-04-25T00:57:05;2.20;;;2.00;;
18526;SDS011;9393;42.158;24.748;2023-04-25T01:00:09;2.67;;;2.47;;
18526;SDS011;9393;42.158;24.748;2023-04-25T01:03:16;2.30;;;2.10;;
18526;SDS011;9393;42.158;24.748;2023-04-25T01:06:22;2.60;;;2.40;;
18526;SDS011;9393;42.158;24.748;2023-04-25T01:09:25;2.37;;;2.17;;
18526;SDS011;9393;42.158;24.748;2023-04-25T01:12:29;2.40;;;2.20;;
18526;SDS011;9393;42.158;24.748;2023-04-25T01:15:33;2.33;;;2.13;;
18526;SDS011;9393;42.158;24.748;2023-04-25T01:18:40;2.90;;;2.60;;
18526;SDS011;9393;42.158;24.748;2023-04-25T01:21:47;2.33;;;2.10;;
18526;SDS011;9393;42.158;24.748;2023-04-25T01:24:51;2.87;;;2.40;;
18526;SDS011;9393;42.158;24.748;2023-04-25T01:27:55;2.40;;;2.20;;
18526;SDS011;9393;42.158;24.748;2023-04-25T01:31:00;2.97;;;2.23;;
18526;SDS011;9393;42.158;24.748;2023-04-25T01:34:04;2.53;;;2.27;;
18526;SDS011;9393;42.158;24.748;2023-04-25T01:37:09;3.07;;;2.33;;
18526;SDS011;9393;42.158;24.748;2023-04-25T01:40:13;3.07;;;2.77;;
18526;SDS011;9393;42.158;24.748;2023-04-25T01:43:17;4.23;;;3.27;;
18526;SDS011;9393;42.158;24.748;2023-04-25T01:46:21;3.90;;;3.37;;
18526;SDS011;9393;42.158;24.748;2023-04-25T01:49:25;3.60;;;3.30;;
18526;SDS011;9393;42.158;24.748;2023-04-25T01:52:29;4.37;;;3.30;;
18526;SDS011;9393;42.158;24.748;2023-04-25T01:55:34;4.27;;;3.27;;
18526;SDS011;9393;42.158;24.748;2023-04-25T01:58:42;3.57;;;3.10;;
18526;SDS011;9393;42.158;24.748;2023-04-25T02:02:04;3.43;;;3.13;;
18526;SDS011;9393;42.158;24.748;2023-04-25T02:05:09;3.37;;;2.90;;
18526;SDS011;9393;42.158;24.748;2023-04-25T02:08:16;4.10;;;3.13;;
18526;SDS011;9393;42.158;24.748;2023-04-25T02:11:20;3.60;;;2.47;;
18526;SDS011;9393;42.158;24.748;2023-04-25T02:14:47;4.73;;;2.30;;
18526;SDS011;9393;42.158;24.748;2023-04-25T02:18:13;2.67;;;2.37;;
18526;SDS011;9393;42.158;24.748;2023-04-25T02:21:18;2.87;;;2.53;;
18526;SDS011;9393;42.158;24.748;2023-04-25T02:24:23;3.13;;;2.67;;
18526;SDS011;9393;42.158;24.748;2023-04-25T02:27:29;3.10;;;2.73;;
18526;SDS011;9393;42.158;24.748;2023-04-25T02:30:33;3.70;;;3.27;;
18526;SDS011;9393;42.158;24.748;2023-04-25T02:33:39;4.37;;;3.07;;
18526;SDS011;9393;42.158;24.748;2023-04-25T02:36:42;4.90;;;3.60;;
18526;SDS011;9393;42.158;24.748;2023-04-25T02:39:48;4.20;;;3.80;;
18526;SDS011;9393;42.158;24.748;2023-04-25T02:42:52;6.03;;;4.53;;
18526;SDS011;9393;42.158;24.748;2023-04-25T02:45:56;6.87;;;4.53;;
18526;SDS011;9393;42.158;24.748;2023-04-25T02:48:59;5.93;;;4.87;;
18526;SDS011;9393;42.158;24.748;2023-04-25T02:52:04;6.37;;;5.17;;
18526;SDS011;9393;42.158;24.748;2023-04-25T02:55:09;8.47;;;6.30;;
18526;SDS011;9393;42.158;24.748;2023-04-25T02:58:14;7.27;;;5.80;;
18526;SDS011;9393;42.158;24.748;2023-04-25T03:01:21;8.50;;;5.67;;
18526;SDS011;9393;42.158;24.748;2023-04-25T03:04:24;6.67;;;5.20;;
18526;SDS011;9393;42.158;24.748;2023-04-25T03:07:29;8.03;;;5.23;;
18526;SDS011;9393;42.158;24.748;2023-04-25T03:10:34;6.27;;;4.80;;
18526;SDS011;9393;42.158;24.748;2023-04-25T03:13:40;5.93;;;4.30;;
18526;SDS011;9393;42.158;24.748;2023-04-25T03:16:45;5.87;;;3.90;;
18526;SDS011;9393;42.158;24.748;2023-04-25T03:19:51;7.33;;;4.57;;
18526;SDS011;9393;42.158;24.748;2023-04-25T03:22:55;8.00;;;4.23;;
18526;SDS011;9393;42.158;24.748;2023-04-25T03:26:00;6.83;;;4.43;;
18526;SDS011;9393;42.158;24.748;2023-04-25T03:29:04;7.00;;;4.77;;
18526;SDS011;9393;42.158;24.748;2023-04-25T03:32:09;5.47;;;4.10;;
18526;SDS011;9393;42.158;24.748;2023-04-25T03:35:14;5.00;;;4.20;;
18526;SDS011;9393;42.158;24.748;2023-04-25T03:38:17;6.77;;;4.30;;
18526;SDS011;9393;42.158;24.748;2023-04-25T03:41:23;5.43;;;4.50;;
18526;SDS011;9393;42.158;24.748;2023-04-25T03:44:31;5.90;;;4.00;;
18526;SDS011;9393;42.158;24.748;2023-04-25T03:47:35;5.07;;;3.87;;
18526;SDS011;9393;42.158;24.748;2023-04-25T03:50:39;4.73;;;4.03;;
18526;SDS011;9393;42.158;24.748;2023-04-25T03:53:43;6.80;;;4.57;;
18526;SDS011;9393;42.158;24.748;2023-04-25T03:57:09;4.87;;;4.37;;
18526;SDS011;9393;42.158;24.748;2023-04-25T04:00:14;7.17;;;4.93;;
18526;SDS011;9393;42.158;24.748;2023-04-25T04:03:18;6.73;;;4.93;;
18526;SDS011;9393;42.158;24.748;2023-04-25T04:06:22;7.23;;;5.33;;
18526;SDS011;9393;42.158;24.748;2023-04-25T04:09:35;7.20;;;5.50;;
18526;SDS011;9393;42.158;24.748;2023-04-25T04:12:45;6.40;;;5.17;;
18526;SDS011;9393;42.158;24.748;2023-04-25T04:15:48;9.53;;;5.70;;
18526;SDS011;9393;42.158;24.748;2023-04-25T04:18:52;7.17;;;5.43;;
18526;SDS011;9393;42.158;24.748;2023-04-25T04:21:56;8.40;;;5.80;;
18526;SDS011;9393;42.158;24.748;2023-04-25T04:25:00;6.37;;;5.20;;
18526;SDS011;9393;42.158;24.748;2023-04-25T04:28:35;6.47;;;4.77;;
18526;SDS011;9393;42.158;24.748;2023-04-25T04:31:49;9.17;;;5.20;;
18526;SDS011;9393;42.158;24.748;2023-04-25T04:34:54;7.33;;;6.07;;
18526;SDS011;9393;42.158;24.748;2023-04-25T04:38:00;7.87;;;6.13;;
18526;SDS011;9393;42.158;24.748;2023-04-25T04:41:07;7.87;;;5.53;;
18526;SDS011;9393;42.158;24.748;2023-04-25T04:44:24;9.37;;;5.63;;
18526;SDS011;9393;42.158;24.748;2023-04-25T04:47:41;8.87;;;6.73;;
18526;SDS011;9393;42.158;24.748;2023-04-25T04:51:08;6.73;;;5.67;;
18526;SDS011;9393;42.158;24.748;2023-04-25T04:54:24;9.37;;;6.27;;
18526;SDS011;9393;42.158;24.748;2023-04-25T04:57:46;7.23;;;5.93;;
18526;SDS011;9393;42.158;24.748;2023-04-25T05:01:05;8.13;;;6.07;;
18526;SDS011;9393;42.158;24.748;2023-04-25T05:04:44;7.97;;;5.73;;
18526;SDS011;9393;42.158;24.748;2023-04-25T05:08:09;8.37;;;6.50;;
18526;SDS011;9393;42.158;24.748;2023-04-25T05:11:26;14.37;;;7.97;;
18526;SDS011;9393;42.158;24.748;2023-04-25T05:14:43;9.93;;;6.90;;
18526;SDS011;9393;42.158;24.748;2023-04-25T05:18:24;10.77;;;7.30;;
18526;SDS011;9393;42.158;24.748;2023-04-25T05:21:39;10.43;;;7.47;;
18526;SDS011;9393;42.158;24.748;2023-04-25T05:25:08;9.13;;;6.80;;
18526;SDS011;9393;42.158;24.748;2023-04-25T05:28:25;11.97;;;7.00;;
18526;SDS011;9393;42.158;24.748;2023-04-25T05:31:42;8.17;;;7.33;;
18526;SDS011;9393;42.158;24.748;2023-04-25T05:34:51;11.80;;;7.87;;
18526;SDS011;9393;42.158;24.748;2023-04-25T05:38:10;14.37;;;7.90;;
18526;SDS011;9393;42.158;24.748;2023-04-25T05:41:40;10.77;;;7.93;;
18526;SDS011;9393;42.158;24.748;2023-04-25T05:45:00;12.53;;;8.00;;
18526;SDS011;9393;42.158;24.748;2023-04-25T05:48:33;13.53;;;9.00;;
18526;SDS011;9393;42.158;24.748;2023-04-25T05:51:54;17.40;;;9.30;;
18526;SDS011;9393;42.158;24.748;2023-04-25T05:55:17;13.53;;;9.40;;
18526;SDS011;9393;42.158;24.748;2023-04-25T05:58:21;14.90;;;8.77;;
18526;SDS011;9393;42.158;24.748;2023-04-25T06:01:25;14.50;;;8.07;;
18526;SDS011;9393;42.158;24.748;2023-04-25T06:04:29;9.97;;;6.27;;
18526;SDS011;9393;42.158;24.748;2023-04-25T06:07:36;14.07;;;7.10;;
18526;SDS011;9393;42.158;24.748;2023-04-25T06:10:40;12.83;;;6.90;;
18526;SDS011;9393;42.158;24.748;2023-04-25T06:13:44;12.60;;;6.07;;
18526;SDS011;9393;42.158;24.748;2023-04-25T06:16:50;11.97;;;5.90;;
18526;SDS011;9393;42.158;24.748;2023-04-25T06:19:54;7.83;;;6.53;;
18526;SDS011;9393;42.158;24.748;2023-04-25T06:22:59;20.70;;;7.63;;
18526;SDS011;9393;42.158;24.748;2023-04-25T06:26:22;15.50;;;8.47;;
18526;SDS011;9393;42.158;24.748;2023-04-25T06:29:26;18.63;;;7.97;;
18526;SDS011;9393;42.158;24.748;2023-04-25T06:32:30;10.83;;;6.50;;
18526;SDS011;9393;42.158;24.748;2023-04-25T06:35:35;14.40;;;6.97;;
18526;SDS011;9393;42.158;24.748;2023-04-25T06:38:41;8.77;;;7.70;;
18526;SDS011;9393;42.158;24.748;2023-04-25T06:41:45;12.83;;;8.53;;
18526;SDS011;9393;42.158;24.748;2023-04-25T06:45:09;14.73;;;8.63;;
18526;SDS011;9393;42.158;24.748;2023-04-25T06:48:15;17.27;;;8.80;;
18526;SDS011;9393;42.158;24.748;2023-04-25T06:51:19;13.93;;;9.60;;
18526;SDS011;9393;42.158;24.748;2023-04-25T06:54:30;16.27;;;9.37;;
18526;SDS011;9393;42.158;24.748;2023-04-25T06:57:40;16.30;;;9.50;;
18526;SDS011;9393;42.158;24.748;2023-04-25T07:01:12;15.73;;;9.00;;
18526;SDS011;9393;42.158;24.748;2023-04-25T07:04:16;12.97;;;9.10;;
18526;SDS011;9393;42.158;24.748;2023-04-25T07:07:25;12.67;;;7.80;;
18526;SDS011;9393;42.158;24.748;2023-04-25T07:10:33;13.67;;;8.30;;
18526;SDS011;9393;42.158;24.748;2023-04-25T07:13:37;10.53;;;7.83;;
18526;SDS011;9393;42.158;24.748;2023-04-25T07:16:41;13.57;;;7.20;;
18526;SDS011;9393;42.158;24.748;2023-04-25T07:19:45;11.90;;;7.40;;
18526;SDS011;9393;42.158;24.748;2023-04-25T07:22:49;11.88;;;7.35;;
18526;SDS011;9393;42.158;24.748;2023-04-25T07:25:54;11.18;;;8.05;;
18526;SDS011;9393;42.158;24.748;2023-04-25T07:29:00;10.48;;;7.60;;
18526;SDS011;9393;42.158;24.748;2023-04-25T07:32:04;14.00;;;7.80;;
18526;SDS011;9393;42.158;24.748;2023-04-25T07:35:08;13.50;;;7.57;;
18526;SDS011;9393;42.158;24.748;2023-04-25T07:38:13;10.93;;;7.88;;
18526;SDS011;9393;42.158;24.748;2023-04-25T07:41:18;10.57;;;7.45;;
18526;SDS011;9393;42.158;24.748;2023-04-25T07:44:22;13.15;;;7.88;;
18526;SDS011;9393;42.158;24.748;2023-04-25T07:47:27;10.02;;;7.15;;
18526;SDS011;9393;42.158;24.748;2023-04-25T07:50:31;11.45;;;7.00;;
18526;SDS011;9393;42.158;24.748;2023-04-25T07:53:35;10.63;;;7.63;;
18526;SDS011;9393;42.158;24.748;2023-04-25T07:56:45;16.05;;;7.22;;
18526;SDS011;9393;42.158;24.748;2023-04-25T07:59:58;13.18;;;7.32;;
18526;SDS011;9393;42.158;24.748;2023-04-25T08:03:03;11.75;;;7.57;;
18526;SDS011;9393;42.158;24.748;2023-04-25T08:06:07;12.18;;;7.20;;
18526;SDS011;9393;42.158;24.748;2023-04-25T08:09:24;9.85;;;6.88;;
18526;SDS011;9393;42.158;24.748;2023-04-25T08:12:31;12.68;;;7.40;;
18526;SDS011;9393;42.158;24.748;2023-04-25T08:15:35;13.02;;;6.95;;
18526;SDS011;9393;42.158;24.748;2023-04-25T08:18:39;12.88;;;6.53;;
18526;SDS011;9393;42.158;24.748;2023-04-25T08:21:43;9.63;;;5.18;;
18526;SDS011;9393;42.158;24.748;2023-04-25T08:24:52;5.70;;;4.10;;
18526;SDS011;9393;42.158;24.748;2023-04-25T08:27:58;8.15;;;4.55;;
18526;SDS011;9393;42.158;24.748;2023-04-25T08:31:05;6.55;;;4.22;;
18526;SDS011;9393;42.158;24.748;2023-04-25T08:34:20;8.93;;;4.10;;
18526;SDS011;9393;42.158;24.748;2023-04-25T08:37:24;7.22;;;4.22;;
18526;SDS011;9393;42.158;24.748;2023-04-25T08:40:35;8.85;;;4.28;;
18526;SDS011;9393;42.158;24.748;2023-04-25T08:43:47;7.82;;;3.97;;
18526;SDS011;9393;42.158;24.748;2023-04-25T08:46:52;6.18;;;4.00;;
18526;SDS011;9393;42.158;24.748;2023-04-25T08:50:03;7.10;;;3.47;;
18526;SDS011;9393;42.158;24.748;2023-04-25T08:53:09;11.43;;;4.15;;
18526;SDS011;9393;42.158;24.748;2023-04-25T08:56:21;4.85;;;3.70;;
18526;SDS011;9393;42.158;24.748;2023-04-25T08:59:26;6.85;;;4.43;;
18526;SDS011;9393;42.158;24.748;2023-04-25T09:02:31;4.70;;;3.60;;
18526;SDS011;9393;42.158;24.748;2023-04-25T09:05:36;6.20;;;3.85;;
18526;SDS011;9393;42.158;24.748;2023-04-25T09:08:44;5.13;;;4.13;;
18526;SDS011;9393;42.158;24.748;2023-04-25T09:11:48;4.60;;;3.53;;
18526;SDS011;9393;42.158;24.748;2023-04-25T09:15:05;5.75;;;3.80;;
18526;SDS011;9393;42.158;24.748;2023-04-25T09:18:26;4.97;;;3.55;;
18526;SDS011;9393;42.158;24.748;2023-04-25T09:21:34;5.57;;;4.10;;
18526;SDS011;9393;42.158;24.748;2023-04-25T09:24:39;5.43;;;3.93;;
18526;SDS011;9393;42.158;24.748;2023-04-25T09:27:51;6.93;;;4.68;;
18526;SDS011;9393;42.158;24.748;2023-04-25T09:31:06;6.37;;;3.97;;
18526;SDS011;9393;42.158;24.748;2023-04-25T09:34:20;6.50;;;4.37;;
18526;SDS011;9393;42.158;24.748;2023-04-25T09:37:30;6.63;;;4.57;;
18526;SDS011;9393;42.158;24.748;2023-04-25T09:40:53;5.93;;;4.80;;
18526;SDS011;9393;42.158;24.748;2023-04-25T09:44:22;6.13;;;4.95;;
18526;SDS011;9393;42.158;24.748;2023-04-25T09:47:30;7.32;;;4.55;;
18526;SDS011;9393;42.158;24.748;2023-04-25T09:50:34;5.60;;;4.03;;
18526;SDS011;9393;42.158;24.748;2023-04-25T09:53:43;7.32;;;4.38;;
18526;SDS011;9393;42.158;24.748;2023-04-25T09:57:12;5.70;;;4.50;;
18526;SDS011;9393;42.158;24.748;2023-04-25T10:00:19;7.63;;;3.83;;
18526;SDS011;9393;42.158;24.748;2023-04-25T10:03:26;5.75;;;4.70;;
18526;SDS011;9393;42.158;24.748;2023-04-25T10:07:00;5.07;;;3.75;;
18526;SDS011;9393;42.158;24.748;2023-04-25T10:10:07;3.92;;;3.50;;
18526;SDS011;9393;42.158;24.748;2023-04-25T10:13:12;3.50;;;3.20;;
18526;SDS011;9393;42.158;24.748;2023-04-25T10:16:17;3.88;;;3.53;;
18526;SDS011;9393;42.158;24.748;2023-04-25T10:19:23;5.82;;;3.50;;
18526;SDS011;9393;42.158;24.748;2023-04-25T10:22:29;5.22;;;3.75;;
18526;SDS011;9393;42.158;24.748;2023-04-25T10:25:36;4.90;;;4.00;;
18526;SDS011;9393;42.158;24.748;2023-04-25T10:28:55;5.45;;;3.85;;
18526;SDS011;9393;42.158;24.748;2023-04-25T10:31:59;4.63;;;3.33;;
18526;SDS011;9393;42.158;24.748;2023-04-25T10:35:11;3.90;;;3.60;;
18526;SDS011;9393;42.158;24.748;2023-04-25T10:38:17;5.55;;;3.20;;
18526;SDS011;9393;42.158;24.748;2023-04-25T10:41:22;4.28;;;3.47;;
18526;SDS011;9393;42.158;24.748;2023-04-25T10:44:26;3.72;;;3.15;;
18526;SDS011;9393;42.158;24.748;2023-04-25T10:47:34;3.88;;;2.80;;
18526;SDS011;9393;42.158;24.748;2023-04-25T10:50:40;8.90;;;3.40;;
18526;SDS011;9393;42.158;24.748;2023-04-25T10:53:44;3.10;;;2.80;;
18526;SDS011;9393;42.158;24.748;2023-04-25T10:56:49;3.50;;;2.90;;
18526;SDS011;9393;42.158;24.748;2023-04-25T10:59:57;3.97;;;2.92;;
18526;SDS011;9393;42.158;24.748;2023-04-25T11:03:02;3.10;;;2.80;;
18526;SDS011;9393;42.158;24.748;2023-04-25T11:06:11;4.32;;;2.88;;
18526;SDS011;9393;42.158;24.748;2023-04-25T11:09:24;5.07;;;2.58;;
18526;SDS011;9393;42.158;24.748;2023-04-25T11:12:29;3.08;;;2.53;;
18526;SDS011;9393;42.158;24.748;2023-04-25T11:15:33;3.60;;;2.50;;
18526;SDS011;9393;42.158;24.748;2023-04-25T11:18:37;3.40;;;2.40;;
18526;SDS011;9393;42.158;24.748;2023-04-25T11:21:45;3.05;;;2.42;;
18526;SDS011;9393;42.158;24.748;2023-04-25T11:24:49;2.75;;;2.17;;
18526;SDS011;9393;42.158;24.748;2023-04-25T11:27:54;4.47;;;2.90;;
18526;SDS011;9393;42.158;24.748;2023-04-25T11:30:59;4.03;;;2.58;;
18526;SDS011;9393;42.158;24.748;2023-04-25T11:34:02;4.50;;;3.20;;
18526;SDS011;9393;42.158;24.748;2023-04-25T11:37:07;4.78;;;3.50;;
18526;SDS011;9393;42.158;24.748;2023-04-25T11:40:13;4.70;;;3.75;;
18526;SDS011;9393;42.158;24.748;2023-04-25T11:43:17;4.38;;;3.45;;
18526;SDS011;9393;42.158;24.748;2023-04-25T11:46:23;6.07;;;3.65;;
18526;SDS011;9393;42.158;24.748;2023-04-25T11:49:30;5.22;;;3.90;;
18526;SDS011;9393;42.158;24.748;2023-04-25T11:52:39;5.28;;;3.70;;
18526;SDS011;9393;42.158;24.748;2023-04-25T11:55:44;5.05;;;4.07;;
18526;SDS011;9393;42.158;24.748;2023-04-25T11:58:55;9.35;;;4.22;;
18526;SDS011;9393;42.158;24.748;2023-04-25T12:01:59;7.78;;;3.92;;
18526;SDS011;9393;42.158;24.748;2023-04-25T12:05:06;7.05;;;3.72;;
18526;SDS011;9393;42.158;24.748;2023-04-25T12:08:31;4.90;;;3.92;;
18526;SDS011;9393;42.158;24.748;2023-04-25T12:11:40;4.30;;;3.88;;
18526;SDS011;9393;42.158;24.748;2023-04-25T12:14:46;9.40;;;4.47;;
18526;SDS011;9393;42.158;24.748;2023-04-25T12:17:51;5.90;;;3.90;;
18526;SDS011;9393;42.158;24.748;2023-04-25T12:20:57;6.32;;;3.53;;
18526;SDS011;9393;42.158;24.748;2023-04-25T12:24:10;5.28;;;3.90;;
18526;SDS011;9393;42.158;24.748;2023-04-25T12:27:16;5.20;;;4.32;;
18526;SDS011;9393;42.158;24.748;2023-04-25T12:30:21;5.15;;;4.25;;
18526;SDS011;9393;42.158;24.748;2023-04-25T12:33:25;9.60;;;4.78;;
18526;SDS011;9393;42.158;24.748;2023-04-25T12:36:30;6.78;;;3.80;;
18526;SDS011;9393;42.158;24.748;2023-04-25T12:39:35;8.07;;;4.60;;
18526;SDS011;9393;42.158;24.748;2023-04-25T12:42:39;4.95;;;4.03;;
18526;SDS011;9393;42.158;24.748;2023-04-25T12:45:43;9.02;;;4.32;;
18526;SDS011;9393;42.158;24.748;2023-04-25T12:48:47;7.07;;;4.13;;
18526;SDS011;9393;42.158;24.748;2023-04-25T12:51:51;5.50;;;4.15;;
18526;SDS011;9393;42.158;24.748;2023-04-25T12:54:57;5.60;;;3.75;;
18526;SDS011;9393;42.158;24.748;2023-04-25T12:58:01;7.20;;;3.65;;
18526;SDS011;9393;42.158;24.748;2023-04-25T13:01:05;4.78;;;3.47;;
18526;SDS011;9393;42.158;24.748;2023-04-25T13:04:09;7.43;;;3.30;;
18526;SDS011;9393;42.158;24.748;2023-04-25T13:07:13;5.28;;;3.00;;
18526;SDS011;9393;42.158;24.748;2023-04-25T13:10:19;3.97;;;2.88;;
18526;SDS011;9393;42.158;24.748;2023-04-25T13:13:23;3.40;;;2.60;;
18526;SDS011;9393;42.158;24.748;2023-04-25T13:16:29;7.57;;;2.95;;
18526;SDS011;9393;42.158;24.748;2023-04-25T13:19:33;3.50;;;2.28;;
18526;SDS011;9393;42.158;24.748;2023-04-25T13:22:37;5.68;;;2.28;;
18526;SDS011;9393;42.158;24.748;2023-04-25T13:25:42;5.20;;;2.35;;
18526;SDS011;9393;42.158;24.748;2023-04-25T13:28:46;7.60;;;2.67;;
18526;SDS011;9393;42.158;24.748;2023-04-25T13:31:50;4.18;;;2.30;;
18526;SDS011;9393;42.158;24.748;2023-04-25T13:34:54;2.25;;;2.00;;
18526;SDS011;9393;42.158;24.748;2023-04-25T13:37:57;2.90;;;2.30;;
18526;SDS011;9393;42.158;24.748;2023-04-25T13:41:03;6.68;;;2.50;;
18526;SDS011;9393;42.158;24.748;2023-04-25T13:44:09;4.95;;;1.63;;
18526;SDS011;9393;42.158;24.748;2023-04-25T13:47:13;3.28;;;1.98;;
18526;SDS011;9393;42.158;24.748;2023-04-25T13:50:17;2.00;;;1.75;;
18526;SDS011;9393;42.158;24.748;2023-04-25T13:53:21;3.05;;;1.83;;
18526;SDS011;9393;42.158;24.748;2023-04-25T13:56:26;4.88;;;2.33;;
18526;SDS011;9393;42.158;24.748;2023-04-25T13:59:30;9.00;;;3.30;;
18526;SDS011;9393;42.158;24.748;2023-04-25T14:02:34;4.40;;;2.08;;
18526;SDS011;9393;42.158;24.748;2023-04-25T14:05:39;3.55;;;1.70;;
18526;SDS011;9393;42.158;24.748;2023-04-25T14:08:42;5.43;;;2.25;;
18526;SDS011;9393;42.158;24.748;2023-04-25T14:11:48;1.50;;;1.40;;
18526;SDS011;9393;42.158;24.748;2023-04-25T14:14:52;1.80;;;1.33;;
18526;SDS011;9393;42.158;24.748;2023-04-25T14:17:56;4.82;;;1.20;;
18526;SDS011;9393;42.158;24.748;2023-04-25T14:21:00;3.42;;;1.52;;
18526;SDS011;9393;42.158;24.748;2023-04-25T14:24:04;2.15;;;1.10;;
18526;SDS011;9393;42.158;24.748;2023-04-25T14:27:09;2.10;;;1.67;;
18526;SDS011;9393;42.158;24.748;2023-04-25T14:30:14;2.70;;;1.30;;
18526;SDS011;9393;42.158;24.748;2023-04-25T14:33:18;2.22;;;1.45;;
18526;SDS011;9393;42.158;24.748;2023-04-25T14:36:22;2.90;;;1.45;;
18526;SDS011;9393;42.158;24.748;2023-04-25T14:39:26;1.77;;;1.30;;
18526;SDS011;9393;42.158;24.748;2023-04-25T14:42:31;1.70;;;1.60;;
18526;SDS011;9393;42.158;24.748;2023-04-25T14:45:36;2.83;;;1.80;;
18526;SDS011;9393;42.158;24.748;2023-04-25T14:48:39;4.22;;;1.42;;
18526;SDS011;9393;42.158;24.748;2023-04-25T14:51:43;1.30;;;1.20;;
18526;SDS011;9393;42.158;24.748;2023-04-25T14:54:47;1.85;;;1.10;;
18526;SDS011;9393;42.158;24.748;2023-04-25T14:57:53;2.65;;;1.25;;
18526;SDS011;9393;42.158;24.748;2023-04-25T15:00:58;1.58;;;1.23;;
18526;SDS011;9393;42.158;24.748;2023-04-25T15:04:02;2.88;;;1.08;;
18526;SDS011;9393;42.158;24.748;2023-04-25T15:07:06;2.47;;;1.75;;
18526;SDS011;9393;42.158;24.748;2023-04-25T15:10:10;5.43;;;1.45;;
18526;SDS011;9393;42.158;24.748;2023-04-25T15:13:19;2.45;;;1.15;;
18526;SDS011;9393;42.158;24.748;2023-04-25T15:16:23;2.33;;;1.30;;
18526;SDS011;9393;42.158;24.748;2023-04-25T15:19:27;3.15;;;1.38;;
18526;SDS011;9393;42.158;24.748;2023-04-25T15:22:31;1.98;;;1.50;;
18526;SDS011;9393;42.158;24.748;2023-04-25T15:25:35;3.63;;;2.13;;
18526;SDS011;9393;42.158;24.748;2023-04-25T15:28:40;2.53;;;2.33;;
18526;SDS011;9393;42.158;24.748;2023-04-25T15:31:44;2.22;;;1.38;;
18526;SDS011;9393;42.158;24.748;2023-04-25T15:34:48;1.45;;;0.93;;
18526;SDS011;9393;42.158;24.748;2023-04-25T15:37:52;2.72;;;1.00;;
18526;SDS011;9393;42.158;24.748;2023-04-25T15:40:56;1.77;;;0.90;;
18526;SDS011;9393;42.158;24.748;2023-04-25T15:44:01;1.15;;;0.90;;
18526;SDS011;9393;42.158;24.748;2023-04-25T15:47:06;3.95;;;0.98;;
18526;SDS011;9393;42.158;24.748;2023-04-25T15:50:10;1.73;;;1.00;;
18526;SDS011;9393;42.158;24.748;2023-04-25T15:53:15;2.15;;;0.95;;
18526;SDS011;9393;42.158;24.748;2023-04-25T15:56:19;2.33;;;1.33;;
18526;SDS011;9393;42.158;24.748;2023-04-25T15:59:24;2.38;;;0.85;;
18526;SDS011;9393;42.158;24.748;2023-04-25T16:02:29;1.02;;;0.90;;
18526;SDS011;9393;42.158;24.748;2023-04-25T16:05:33;1.52;;;0.90;;
18526;SDS011;9393;42.158;24.748;2023-04-25T16:08:37;1.35;;;1.00;;
18526;SDS011;9393;42.158;24.748;2023-04-25T16:11:40;2.45;;;1.23;;
18526;SDS011;9393;42.158;24.748;2023-04-25T16:14:46;2.13;;;0.80;;
18526;SDS011;9393;42.158;24.748;2023-04-25T16:17:49;1.10;;;1.00;;
18526;SDS011;9393;42.158;24.748;2023-04-25T16:20:53;3.28;;;1.20;;
18526;SDS011;9393;42.158;24.748;2023-04-25T16:23:57;2.88;;;1.25;;
18526;SDS011;9393;42.158;24.748;2023-04-25T16:27:01;3.05;;;1.63;;
18526;SDS011;9393;42.158;24.748;2023-04-25T16:30:07;2.27;;;1.27;;
18526;SDS011;9393;42.158;24.748;2023-04-25T16:33:12;2.08;;;1.42;;
18526;SDS011;9393;42.158;24.748;2023-04-25T16:36:16;2.83;;;1.88;;
18526;SDS011;9393;42.158;24.748;2023-04-25T16:39:20;5.38;;;2.33;;
18526;SDS011;9393;42.158;24.748;2023-04-25T16:42:24;4.57;;;1.90;;
18526;SDS011;9393;42.158;24.748;2023-04-25T16:45:29;2.47;;;1.40;;
18526;SDS011;9393;42.158;24.748;2023-04-25T16:48:33;1.60;;;1.20;;
18526;SDS011;9393;42.158;24.748;2023-04-25T16:51:37;2.50;;;1.77;;
18526;SDS011;9393;42.158;24.748;2023-04-25T16:54:40;2.53;;;1.67;;
18526;SDS011;9393;42.158;24.748;2023-04-25T16:57:44;2.88;;;1.58;;
18526;SDS011;9393;42.158;24.748;2023-04-25T17:00:50;1.90;;;1.33;;
18526;SDS011;9393;42.158;24.748;2023-04-25T17:03:53;2.37;;;1.70;;
18526;SDS011;9393;42.158;24.748;2023-04-25T17:06:57;2.85;;;2.20;;
18526;SDS011;9393;42.158;24.748;2023-04-25T17:10:01;3.37;;;1.70;;
18526;SDS011;9393;42.158;24.748;2023-04-25T17:13:05;2.33;;;1.87;;
18526;SDS011;9393;42.158;24.748;2023-04-25T17:16:11;3.70;;;1.60;;
18526;SDS011;9393;42.158;24.748;2023-04-25T17:19:17;4.53;;;1.90;;
18526;SDS011;9393;42.158;24.748;2023-04-25T17:22:22;3.97;;;1.77;;
18526;SDS011;9393;42.158;24.748;2023-04-25T17:25:26;2.33;;;2.00;;
18526;SDS011;9393;42.158;24.748;2023-04-25T17:28:30;2.03;;;1.70;;
18526;SDS011;9393;42.158;24.748;2023-04-25T17:31:35;2.87;;;1.77;;
18526;SDS011;9393;42.158;24.748;2023-04-25T17:34:39;4.77;;;2.43;;
18526;SDS011;9393;42.158;24.748;2023-04-25T17:37:44;5.00;;;2.40;;
18526;SDS011;9393;42.158;24.748;2023-04-25T17:40:48;2.53;;;2.13;;
18526;SDS011;9393;42.158;24.748;2023-04-25T17:43:52;3.40;;;2.30;;
18526;SDS011;9393;42.158;24.748;2023-04-25T17:46:57;4.03;;;2.23;;
18526;SDS011;9393;42.158;24.748;2023-04-25T17:50:02;2.27;;;1.93;;
18526;SDS011;9393;42.158;24.748;2023-04-25T17:53:06;2.40;;;2.10;;
18526;SDS011;9393;42.158;24.748;2023-04-25T17:56:10;4.80;;;2.27;;
18526;SDS011;9393;42.158;24.748;2023-04-25T17:59:27;4.10;;;2.43;;
18526;SDS011;9393;42.158;24.748;2023-04-25T18:02:32;2.57;;;2.23;;
18526;SDS011;9393;42.158;24.748;2023-04-25T18:05:37;6.83;;;2.10;;
18526;SDS011;9393;42.158;24.748;2023-04-25T18:08:42;3.87;;;2.63;;
18526;SDS011;9393;42.158;24.748;2023-04-25T18:11:46;4.23;;;2.47;;
18526;SDS011;9393;42.158;24.748;2023-04-25T18:14:51;4.37;;;2.40;;
18526;SDS011;9393;42.158;24.748;2023-04-25T18:17:56;6.03;;;2.40;;
18526;SDS011;9393;42.158;24.748;2023-04-25T18:21:00;3.73;;;2.00;;
18526;SDS011;9393;42.158;24.748;2023-04-25T18:24:06;2.20;;;1.63;;
18526;SDS011;9393;42.158;24.748;2023-04-25T18:27:13;3.00;;;2.57;;
18526;SDS011;9393;42.158;24.748;2023-04-25T18:30:17;3.43;;;2.37;;
18526;SDS011;9393;42.158;24.748;2023-04-25T18:33:22;7.43;;;2.80;;
18526;SDS011;9393;42.158;24.748;2023-04-25T18:36:26;4.63;;;2.50;;
18526;SDS011;9393;42.158;24.748;2023-04-25T18:39:30;6.37;;;2.77;;
18526;SDS011;9393;42.158;24.748;2023-04-25T18:42:34;5.37;;;2.67;;
18526;SDS011;9393;42.158;24.748;2023-04-25T18:45:38;4.07;;;2.40;;